Time;durP1;ratioP1;P1;durP2;ratioP2;P2;SDS_P1;SDS_P2;PMS_P1;PMS_P2;Temp;Humidity;BMP_temperature;BMP_pressure;BME280_temperature;BME280_humidity;BME280_pressure;Samples;Min_cycle;Max_cycle;Signal;HPM_P1;HPM_P2
2021/12/01 00:00:18;;;;;;;7.03;6.43;;;;;;;8.30;100.00;100157.09;5010072;28;20029;-57
2021/12/01 00:02:44;;;;;;;6.00;5.45;;;;;;;8.29;100.00;100137.28;5010433;28;20462;-57
2021/12/01 00:05:10;;;;;;;6.43;5.93;;;;;;;8.30;100.00;100139.00;5010171;28;20034;-56
2021/12/01 00:07:36;;;;;;;5.90;5.40;;;;;;;8.29;100.00;100130.38;5010104;28;20030;-57
2021/12/01 00:10:06;;;;;;;6.85;6.20;;;;;;;8.28;100.00;100132.91;5010462;28;20101;-56
2021/12/01 00:12:32;;;;;;;6.57;6.00;;;;;;;8.29;100.00;100126.94;5010239;28;20509;-58
2021/12/01 00:14:57;;;;;;;6.13;5.60;;;;;;;8.28;100.00;100123.47;5009984;28;20037;-56
2021/12/01 00:17:23;;;;;;;7.07;6.47;;;;;;;8.29;100.00;100108.88;5010244;28;20080;-57
2021/12/01 00:19:48;;;;;;;6.85;6.28;;;;;;;8.27;100.00;100105.38;5010473;28;20040;-57
2021/12/01 00:22:14;;;;;;;6.80;6.20;;;;;;;8.28;100.00;100096.78;5010119;28;20057;-55
2021/12/01 00:24:39;;;;;;;6.50;5.75;;;;;;;8.26;100.00;100077.78;5009969;28;20064;-57
2021/12/01 00:27:05;;;;;;;6.40;5.90;;;;;;;8.26;100.00;100072.63;5009855;28;20057;-58
2021/12/01 00:29:30;;;;;;;6.05;5.60;;;;;;;8.25;100.00;100066.59;5009939;28;20481;-56
2021/12/01 00:31:55;;;;;;;5.68;5.25;;;;;;;8.25;100.00;100047.66;5010102;28;20277;-57
2021/12/01 00:34:20;;;;;;;5.78;5.38;;;;;;;8.25;100.00;100039.91;4992243;28;20375;-57
2021/12/01 00:36:46;;;;;;;5.57;5.07;;;;;;;8.24;100.00;100033.88;5009859;28;20100;-57
2021/12/01 00:39:11;;;;;;;5.63;5.00;;;;;;;8.25;100.00;100032.16;5009947;28;20068;-56
2021/12/01 00:41:37;;;;;;;5.47;5.03;;;;;;;8.23;100.00;100021.81;5009756;28;20394;-56
2021/12/01 00:44:02;;;;;;;6.18;5.68;;;;;;;8.22;100.00;100008.84;5009743;28;20061;-57
2021/12/01 00:46:54;;;;;;;5.80;5.30;;;;;;;8.22;100.00;100016.59;5010144;28;20026;-58
2021/12/01 00:49:19;;;;;;;;;;;;;;;8.21;100.00;100012.25;5010311;28;20132;-57
2021/12/01 00:51:44;;;;;;;6.07;5.57;;;;;;;8.22;100.00;100003.69;5009933;28;20004;-58
2021/12/01 00:54:10;;;;;;;6.00;5.50;;;;;;;8.20;100.00;100000.19;5010170;28;20029;-57
2021/12/01 00:56:35;;;;;;;6.63;6.13;;;;;;;8.20;100.00;99990.75;5009320;28;20033;-57
2021/12/01 00:59:01;;;;;;;6.47;5.75;;;;;;;8.19;100.00;99995.84;5009179;28;20041;-57
2021/12/01 01:01:26;;;;;;;5.72;5.22;;;;;;;8.21;100.00;99991.59;5009799;28;20061;-57
2021/12/01 01:03:52;;;;;;;6.53;5.93;;;;;;;8.19;100.00;99977.78;5009481;28;20033;-57
2021/12/01 01:06:17;;;;;;;6.38;5.75;;;;;;;8.16;100.00;99984.63;5009467;28;20038;-55
2021/12/01 01:08:45;;;;;;;6.25;5.65;;;;;;;8.15;100.00;99964.78;5009527;28;20026;-57
2021/12/01 01:16:22;;;;;;;7.15;6.45;;;;;;;8.15;100.00;99981.97;5009189;28;20164;-57
2021/12/01 01:16:43;;;;;;;8.40;7.03;;;;;;;8.13;100.00;99958.72;5009452;28;20075;-57
2021/12/01 01:19:08;;;;;;;8.00;7.30;;;;;;;8.11;100.00;99957.78;5009700;28;20046;-58
2021/12/01 01:21:37;;;;;;;7.70;7.00;;;;;;;8.08;100.00;99959.44;5009620;28;20072;-57
2021/12/01 01:24:04;;;;;;;7.97;7.28;;;;;;;8.07;100.00;99949.94;5009659;28;20446;-57
2021/12/01 01:26:30;;;;;;;9.10;8.40;;;;;;;8.07;100.00;99937.03;5009428;28;20048;-58
2021/12/01 01:28:55;;;;;;;8.50;7.70;;;;;;;8.04;100.00;99938.69;5009182;28;20044;-55
2021/12/01 01:31:21;;;;;;;9.55;8.48;;;;;;;8.03;100.00;99933.50;5009438;28;20025;-58
2021/12/01 01:33:48;;;;;;;9.82;9.02;;;;;;;8.03;100.00;99918.00;5009424;28;20117;-58
2021/12/01 01:36:14;;;;;;;9.20;8.30;;;;;;;8.03;100.00;99925.75;5009080;28;20034;-57
2021/12/01 01:38:40;;;;;;;9.18;8.38;;;;;;;8.02;100.00;99924.00;5009253;28;20140;-57
2021/12/01 01:41:09;;;;;;;8.70;8.02;;;;;;;8.00;100.00;99921.38;5009207;28;20062;-56
2021/12/01 01:43:35;;;;;;;7.93;7.32;;;;;;;8.01;100.00;99919.66;5009365;28;20029;-56
2021/12/01 01:46:01;;;;;;;8.10;7.40;;;;;;;8.01;100.00;99917.09;5009322;28;20032;-57
2021/12/01 01:48:35;;;;;;;7.80;7.20;;;;;;;8.01;100.00;99901.59;5008704;28;20030;-57
2021/12/01 01:51:04;;;;;;;8.43;7.57;;;;;;;7.99;100.00;99904.16;5009367;28;20052;-57
2021/12/01 01:53:31;;;;;;;7.50;6.75;;;;;;;7.97;100.00;99895.47;5009175;28;20030;-57
2021/12/01 01:55:59;;;;;;;7.25;6.55;;;;;;;7.98;100.00;99893.78;5009141;28;20048;-57
2021/12/01 01:58:27;;;;;;;7.70;7.05;;;;;;;7.96;100.00;99886.00;5008998;28;20058;-57
2021/12/01 02:01:06;;;;;;;7.10;6.50;;;;;;;7.92;100.00;99874.72;5008924;28;20026;-56
2021/12/01 02:03:34;;;;;;;7.28;6.68;;;;;;;7.90;100.00;99875.50;5009425;28;20389;-56
2021/12/01 02:06:00;;;;;;;5.95;5.45;;;;;;;7.91;100.00;99867.84;5008995;28;20474;-57
2021/12/01 02:08:30;;;;;;;6.50;5.97;;;;;;;7.89;100.00;99869.50;5009282;28;20030;-58
2021/12/01 02:10:58;;;;;;;6.25;5.75;;;;;;;7.85;100.00;99861.59;5009538;28;20487;-57
2021/12/01 02:13:25;;;;;;;6.30;5.75;;;;;;;7.85;100.00;99847.00;5012609;28;20485;-57
2021/12/01 02:15:52;;;;;;;5.82;5.22;;;;;;;7.83;100.00;99835.78;5012329;28;20030;-57
2021/12/01 02:18:18;;;;;;;5.50;5.10;;;;;;;7.83;100.00;99837.47;5012512;28;20033;-56
2021/12/01 02:21:02;;;;;;;4.88;4.57;;;;;;;7.84;100.00;99832.38;5012574;28;20409;-56
2021/12/01 02:23:28;;;;;;;4.70;4.30;;;;;;;7.83;100.00;99832.31;5012140;28;20393;-56
2021/12/01 02:25:53;;;;;;;4.50;4.20;;;;;;;7.80;100.00;99820.22;5012224;28;20026;-57
2021/12/01 02:28:19;;;;;;;4.32;4.03;;;;;;;7.80;100.00;99817.66;5010917;28;20525;-56
2021/12/01 02:30:45;;;;;;;4.00;3.70;;;;;;;7.79;100.00;99813.31;5011896;28;20034;-57
2021/12/01 02:33:10;;;;;;;3.63;3.33;;;;;;;7.75;100.00;99796.03;5012506;28;20080;-56
2021/12/01 02:35:35;;;;;;;3.42;3.13;;;;;;;7.76;100.00;99798.63;5011991;28;20083;-57
2021/12/01 02:38:03;;;;;;;5.25;3.22;;;;;;;7.74;100.00;99782.25;5011887;28;20041;-56
2021/12/01 02:40:28;;;;;;;3.17;2.97;;;;;;;7.75;100.00;99788.28;5012143;28;20482;-57
2021/12/01 02:42:53;;;;;;;2.88;2.67;;;;;;;7.74;100.00;99776.19;5011826;28;20084;-57
2021/12/01 02:45:19;;;;;;;5.03;2.72;;;;;;;7.73;100.00;99761.56;5012338;28;20338;-58
2021/12/01 02:47:44;;;;;;;2.90;2.70;;;;;;;7.73;100.00;99765.03;5011905;28;20057;-57
2021/12/01 02:50:10;;;;;;;3.25;2.83;;;;;;;7.69;100.00;99753.75;5011799;28;20036;-57
2021/12/01 02:52:36;;;;;;;2.75;2.55;;;;;;;7.68;100.00;99744.25;5012040;28;20373;-55
2021/12/01 02:55:07;;;;;;;3.22;2.92;;;;;;;7.66;100.00;99758.81;5011504;28;20030;-56
2021/12/01 02:57:46;;;;;;;3.60;3.30;;;;;;;7.65;100.00;99739.03;5011720;28;20076;-57
2021/12/01 03:00:12;;;;;;;4.40;3.83;;;;;;;7.64;100.00;99737.31;5011635;28;20382;-57
2021/12/01 03:02:38;;;;;;;4.00;3.35;;;;;;;7.63;100.00;99755.28;5011619;28;20072;-57
2021/12/01 03:05:05;;;;;;;4.13;3.72;;;;;;;7.63;100.00;99717.47;5011346;28;20162;-55
2021/12/01 03:07:31;;;;;;;5.55;4.07;;;;;;;7.62;100.00;99718.34;5011158;28;20482;-57
2021/12/01 03:09:57;;;;;;;4.85;4.32;;;;;;;7.59;100.00;99707.91;5011272;28;20443;-58
2021/12/01 03:12:27;;;;;;;4.22;3.85;;;;;;;7.60;100.00;99699.38;5011116;28;20129;-57
2021/12/01 03:14:52;;;;;;;4.47;4.10;;;;;;;7.58;100.00;99706.19;5011245;28;20038;-57
2021/12/01 03:17:18;;;;;;;4.30;4.00;;;;;;;7.56;100.00;99685.53;5011367;28;20820;-57
2021/12/01 03:19:43;;;;;;;4.28;3.88;;;;;;;7.56;100.00;99687.22;5010979;28;20018;-57
2021/12/01 03:22:12;;;;;;;4.18;3.78;;;;;;;7.54;100.00;99687.19;5010343;28;20030;-55
2021/12/01 03:24:38;;;;;;;8.02;4.30;;;;;;;7.56;100.00;99694.94;5010936;28;20028;-56
2021/12/01 03:27:03;;;;;;;4.38;3.92;;;;;;;7.55;100.00;99672.59;5010924;28;20025;-57
2021/12/01 03:29:29;;;;;;;5.38;4.43;;;;;;;7.52;100.00;99672.53;5011425;28;20112;-57
2021/12/01 03:31:54;;;;;;;4.13;3.75;;;;;;;7.50;100.00;99658.72;5011095;28;20054;-58
2021/12/01 03:34:22;;;;;;;4.78;4.15;;;;;;;7.51;100.00;99657.88;5010450;28;20034;-57
2021/12/01 03:36:47;;;;;;;4.38;3.70;;;;;;;7.48;100.00;99652.66;5010873;28;20359;-57
2021/12/01 03:39:13;;;;;;;5.22;3.80;;;;;;;7.51;100.00;99657.88;5010780;28;20052;-56
2021/12/01 03:41:38;;;;;;;4.20;3.90;;;;;;;7.51;100.00;99644.97;5010835;28;20432;-57
2021/12/01 03:44:04;;;;;;;4.50;4.13;;;;;;;7.51;100.00;99637.25;5010508;28;20026;-57
2021/12/01 03:46:29;;;;;;;4.35;3.95;;;;;;;7.49;100.00;99633.75;5011021;28;20088;-56
2021/12/01 03:48:54;;;;;;;4.43;4.03;;;;;;;7.45;100.00;99623.38;5010258;28;20113;-57
2021/12/01 03:51:20;;;;;;;5.95;4.13;;;;;;;7.41;100.00;99626.69;5010569;28;20375;-57
2021/12/01 03:53:45;;;;;;;4.15;3.75;;;;;;;7.37;100.00;99617.16;5010238;28;20029;-56
2021/12/01 03:56:11;;;;;;;5.22;4.72;;;;;;;7.33;100.00;99607.59;5010375;28;20025;-58
2021/12/01 03:58:36;;;;;;;5.13;4.70;;;;;;;7.28;100.00;99591.16;5010720;28;20389;-56
2021/12/01 04:01:02;;;;;;;5.05;4.18;;;;;;;7.28;100.00;99598.88;5010501;28;20433;-57
2021/12/01 04:03:27;;;;;;;5.75;5.35;;;;;;;7.23;100.00;99566.97;5010574;28;20474;-55
2021/12/01 04:05:53;;;;;;;5.82;5.32;;;;;;;7.25;100.00;99570.47;5009980;28;20446;-57
2021/12/01 04:08:18;;;;;;;5.40;4.88;;;;;;;7.24;100.00;99556.69;5010238;28;20036;-56
2021/12/01 04:10:43;;;;;;;6.30;5.32;;;;;;;7.23;100.00;99551.50;5009998;28;20018;-56
2021/12/01 04:13:09;;;;;;;5.53;5.03;;;;;;;7.21;100.00;99548.91;5009775;28;20141;-56
2021/12/01 04:15:34;;;;;;;4.43;4.03;;;;;;;7.20;100.00;99540.28;5009984;28;20034;-57
2021/12/01 04:18:00;;;;;;;5.60;3.70;;;;;;;7.19;100.00;99538.56;5010431;28;20109;-57
2021/12/01 04:20:25;;;;;;;4.15;3.72;;;;;;;7.23;100.00;99541.19;5010287;28;20555;-55
2021/12/01 04:22:51;;;;;;;4.15;3.65;;;;;;;7.22;100.00;99537.75;5010154;28;20030;-57
2021/12/01 04:25:17;;;;;;;3.63;3.10;;;;;;;7.18;100.00;99534.22;5009924;28;20037;-56
2021/12/01 04:27:42;;;;;;;3.75;3.45;;;;;;;7.17;100.00;99524.75;5009925;28;20030;-56
2021/12/01 04:30:11;;;;;;;4.07;3.20;;;;;;;7.17;100.00;99527.34;5009676;28;20022;-57
2021/12/01 04:32:37;;;;;;;3.20;2.90;;;;;;;7.19;100.00;99511.91;5009715;28;20068;-57
2021/12/01 04:35:03;;;;;;;2.80;2.60;;;;;;;7.16;100.00;99497.22;5009491;28;20025;-56
2021/12/01 04:37:29;;;;;;;3.03;2.72;;;;;;;7.15;100.00;99490.34;5009629;28;20017;-57
2021/12/01 04:39:55;;;;;;;3.15;2.78;;;;;;;7.15;100.00;99479.16;5009621;28;20488;-56
2021/12/01 04:42:20;;;;;;;3.47;2.65;;;;;;;7.13;100.00;99473.97;5009684;28;20076;-57
2021/12/01 04:44:46;;;;;;;3.75;2.30;;;;;;;7.13;100.00;99473.97;5009977;28;20032;-57
2021/12/01 04:47:14;;;;;;;2.55;2.20;;;;;;;7.13;100.00;99453.38;5009988;28;20132;-57
2021/12/01 04:49:40;;;;;;;3.55;2.40;;;;;;;7.12;100.00;99443.91;5009714;28;20018;-57
2021/12/01 04:52:09;;;;;;;3.30;2.30;;;;;;;7.13;100.00;99444.75;5009461;28;20105;-57
2021/12/01 04:54:35;;;;;;;3.38;2.25;;;;;;;7.12;100.00;99445.59;5009564;28;20117;-58
2021/12/01 04:57:04;;;;;;;2.95;2.30;;;;;;;7.09;100.00;99428.34;5009733;28;20109;-56
2021/12/01 04:59:29;;;;;;;2.90;2.70;;;;;;;7.08;100.00;99431.78;5009226;28;20365;-57
2021/12/01 05:01:56;;;;;;;4.40;2.40;;;;;;;7.08;100.00;99421.47;5009547;28;20068;-57
2021/12/01 05:04:22;;;;;;;3.35;2.17;;;;;;;7.02;100.00;99422.19;5009520;28;20021;-57
2021/12/01 05:06:48;;;;;;;2.70;2.50;;;;;;;6.99;100.00;99410.94;5009482;28;20038;-56
2021/12/01 05:09:14;;;;;;;3.63;2.22;;;;;;;6.94;100.00;99414.28;5009355;28;20088;-56
2021/12/01 05:11:40;;;;;;;3.10;2.75;;;;;;;6.87;100.00;99412.41;5009325;28;20498;-56
2021/12/01 05:14:05;;;;;;;3.58;2.58;;;;;;;6.84;100.00;99407.16;5009114;28;20036;-56
2021/12/01 05:16:31;;;;;;;3.30;3.00;;;;;;;6.78;100.00;99391.59;5013881;28;20030;-57
2021/12/01 05:18:56;;;;;;;3.80;3.20;;;;;;;6.75;100.00;99386.34;5009122;28;20036;-57
2021/12/01 05:21:21;;;;;;;3.47;3.00;;;;;;;6.72;100.00;99395.75;5009022;28;20136;-57
2021/12/01 05:23:47;;;;;;;2.75;2.55;;;;;;;6.67;100.00;99399.91;5009497;28;20029;-57
2021/12/01 05:26:12;;;;;;;6.85;2.95;;;;;;;6.66;100.00;99390.44;5009383;28;20128;-57
2021/12/01 05:28:39;;;;;;;2.47;2.28;;;;;;;6.65;100.00;99380.97;5009121;28;20026;-57
2021/12/01 05:31:05;;;;;;;3.15;2.95;;;;;;;6.66;100.00;99382.72;5013890;28;20390;-57
2021/12/01 05:33:30;;;;;;;2.70;2.50;;;;;;;6.65;100.00;99385.25;5009302;28;20040;-57
2021/12/01 05:35:56;;;;;;;3.83;2.67;;;;;;;6.62;100.00;99367.16;5009029;28;20485;-57
2021/12/01 05:38:21;;;;;;;2.63;2.42;;;;;;;6.59;100.00;99365.38;5009247;28;20553;-56
2021/12/01 05:40:49;;;;;;;3.42;2.50;;;;;;;6.61;100.00;99363.72;5009218;28;20112;-57
2021/12/01 05:46:49;;;;;;;2.40;2.20;;;;;;;6.56;100.00;99357.59;5011004;28;20049;-56
2021/12/01 05:49:14;;;;;;;2.95;2.03;;;;;;;6.56;100.00;99344.72;5012698;28;20156;-55
2021/12/01 05:51:40;;;;;;;2.63;2.42;;;;;;;6.56;100.00;99352.44;5012722;28;20541;-57
2021/12/01 05:54:07;;;;;;;3.03;2.13;;;;;;;6.55;100.00;99345.56;5012696;28;20084;-57
2021/12/01 05:56:32;;;;;;;4.03;1.98;;;;;;;6.55;100.00;99314.69;5013005;28;20067;-58
2021/12/01 05:58:58;;;;;;;2.17;1.80;;;;;;;6.52;100.00;99335.16;5012523;28;20030;-57
2021/12/01 06:01:23;;;;;;;1.83;1.73;;;;;;;6.52;100.00;99332.59;5014268;28;20022;-58
2021/12/01 06:03:49;;;;;;;2.30;2.10;;;;;;;6.52;100.00;99317.16;5012565;28;20463;-57
2021/12/01 06:06:14;;;;;;;1.88;1.77;;;;;;;6.49;100.00;99308.50;5012385;28;20033;-57
2021/12/01 06:08:39;;;;;;;1.60;1.50;;;;;;;6.50;100.00;99299.09;5012371;28;20026;-57
2021/12/01 06:11:05;;;;;;;1.70;1.60;;;;;;;6.49;100.00;99303.38;5011867;28;20029;-58
2021/12/01 06:13:30;;;;;;;1.65;1.30;;;;;;;6.52;100.00;99289.72;5012334;28;20091;-57
2021/12/01 06:15:56;;;;;;;1.40;1.30;;;;;;;6.52;100.00;99281.13;5012354;28;20458;-56
2021/12/01 06:18:21;;;;;;;1.58;1.48;;;;;;;6.52;100.00;99283.69;5012234;28;20080;-57
2021/12/01 06:20:47;;;;;;;1.88;1.20;;;;;;;6.49;100.00;99280.19;5012236;28;20060;-56
2021/12/01 06:23:13;;;;;;;2.60;1.58;;;;;;;6.51;100.00;99269.09;5012057;28;20498;-57
2021/12/01 06:25:38;;;;;;;1.67;1.23;;;;;;;6.54;100.00;99261.44;5011909;28;20470;-57
2021/12/01 06:28:04;;;;;;;1.88;1.10;;;;;;;6.53;100.00;99263.13;5011719;28;20023;-58
2021/12/01 06:30:33;;;;;;;3.33;1.42;;;;;;;6.54;100.00;99256.28;5011427;28;20025;-56
2021/12/01 06:32:59;;;;;;;1.55;1.45;;;;;;;6.56;100.00;99257.19;5011976;28;20633;-57
2021/12/01 06:35:24;;;;;;;1.65;1.40;;;;;;;6.56;100.00;99252.94;5011836;28;20052;-57
2021/12/01 06:37:50;;;;;;;1.85;1.75;;;;;;;6.57;100.00;99253.78;5011784;28;20030;-58
2021/12/01 06:40:17;;;;;;;1.20;1.10;;;;;;;6.58;100.00;99247.81;5011853;28;20026;-57
2021/12/01 06:42:43;;;;;;;1.73;1.63;;;;;;;6.60;100.00;99228.13;5011519;28;20041;-57
2021/12/01 06:45:11;;;;;;;1.27;1.17;;;;;;;6.64;100.00;99244.50;5011893;28;20393;-56
2021/12/01 06:47:36;;;;;;;1.30;1.13;;;;;;;6.66;100.00;99227.38;5011625;28;20029;-57
2021/12/01 06:50:04;;;;;;;2.50;1.20;;;;;;;6.67;100.00;99230.00;5011977;28;20167;-56
2021/12/01 06:52:29;;;;;;;1.50;1.40;;;;;;;6.66;100.00;99228.25;5011607;28;20040;-56
2021/12/01 06:54:55;;;;;;;1.98;1.30;;;;;;;6.69;100.00;99233.47;5011428;28;20026;-56
2021/12/01 06:57:21;;;;;;;1.90;1.58;;;;;;;6.68;100.00;99211.13;5011524;28;20140;-57
2021/12/01 06:59:46;;;;;;;1.77;1.67;;;;;;;6.66;100.00;99215.38;5011716;28;20553;-57
2021/12/01 07:02:12;;;;;;;2.10;1.90;;;;;;;6.68;100.00;99221.44;5011620;28;20030;-56
2021/12/01 07:04:37;;;;;;;3.20;1.90;;;;;;;6.69;100.00;99218.00;5010155;28;20025;-57
2021/12/01 07:07:03;;;;;;;2.30;1.95;;;;;;;6.70;100.00;99212.03;5010946;28;20018;-57
2021/12/01 07:09:28;;;;;;;2.65;2.30;;;;;;;6.72;100.00;99205.22;5010903;28;20369;-55
2021/12/01 07:11:54;;;;;;;3.60;2.72;;;;;;;6.71;100.00;99200.91;5014648;28;20474;-58
2021/12/01 07:14:19;;;;;;;4.20;2.65;;;;;;;6.73;100.00;99212.09;5016621;28;20109;-58
2021/12/01 07:16:45;;;;;;;2.63;2.53;;;;;;;6.75;100.00;99193.22;5010886;28;20421;-57
2021/12/01 07:19:10;;;;;;;2.60;2.40;;;;;;;6.75;100.00;99198.38;5010256;28;20021;-56
2021/12/01 07:21:36;;;;;;;3.55;3.25;;;;;;;6.78;100.00;99206.19;5010045;28;20114;-57
2021/12/01 07:24:03;;;;;;;3.15;2.95;;;;;;;6.80;100.00;99195.06;5010177;28;20108;-57
2021/12/01 07:26:29;;;;;;;4.38;3.17;;;;;;;6.80;100.00;99189.06;5011387;28;20030;-57
2021/12/01 07:28:54;;;;;;;3.28;2.97;;;;;;;6.84;100.00;99196.88;5010177;28;20032;-56
2021/12/01 07:31:19;;;;;;;3.75;3.42;;;;;;;6.85;100.00;99196.03;5010941;28;20406;-58
2021/12/01 07:33:44;;;;;;;4.22;3.70;;;;;;;6.86;100.00;99196.91;5010500;28;20040;-58
2021/12/01 07:36:10;;;;;;;3.80;3.47;;;;;;;6.87;100.00;99205.53;5010237;28;20036;-58
2021/12/01 07:38:35;;;;;;;3.75;3.45;;;;;;;6.87;100.00;99185.78;5009906;28;20029;-58
2021/12/01 07:41:00;;;;;;;4.63;4.32;;;;;;;6.88;100.00;99184.94;5010063;28;20032;-58
2021/12/01 07:43:26;;;;;;;4.70;4.30;;;;;;;6.91;100.00;99182.44;5010210;28;20076;-57
2021/12/01 07:45:52;;;;;;;5.05;4.65;;;;;;;6.90;100.00;99191.00;5010445;28;20049;-56
2021/12/01 07:48:18;;;;;;;5.03;4.63;;;;;;;6.89;100.00;99185.81;5009941;28;20075;-56
2021/12/01 07:50:44;;;;;;;5.15;4.75;;;;;;;6.90;100.00;99175.53;5008269;28;20430;-56
2021/12/01 07:53:09;;;;;;;5.50;5.00;;;;;;;6.91;100.00;99176.41;5008283;28;20041;-57
2021/12/01 07:55:35;;;;;;;5.93;5.35;;;;;;;6.93;100.00;99169.56;5008508;28;20030;-58
2021/12/01 07:58:00;;;;;;;6.95;6.32;;;;;;;6.94;100.00;99172.19;5007886;28;20052;-57
2021/12/01 08:00:26;;;;;;;5.88;5.35;;;;;;;6.97;100.00;99161.09;5009923;28;20026;-57
2021/12/01 08:02:52;;;;;;;6.18;5.72;;;;;;;6.99;100.00;99148.22;5010090;28;20030;-57
2021/12/01 08:05:17;;;;;;;6.38;5.32;;;;;;;6.99;100.00;99153.38;5010045;28;20030;-57
2021/12/01 08:07:42;;;;;;;5.68;5.18;;;;;;;7.02;100.00;99161.16;5009994;28;20026;-56
2021/12/01 08:10:10;;;;;;;5.57;5.07;;;;;;;7.03;100.00;99150.03;5008960;28;20393;-57
2021/12/01 08:12:35;;;;;;;5.18;4.78;;;;;;;7.05;100.00;99148.38;4992272;28;20069;-57
2021/12/01 08:15:03;;;;;;;5.40;5.00;;;;;;;7.05;100.00;99149.22;5009762;28;20030;-56
2021/12/01 08:17:28;;;;;;;5.22;4.82;;;;;;;7.08;100.00;99140.69;5010454;28;20087;-58
2021/12/01 08:19:54;;;;;;;6.20;5.70;;;;;;;7.11;100.00;99148.47;5009931;28;20105;-56
2021/12/01 08:22:19;;;;;;;6.13;5.53;;;;;;;7.12;100.00;99134.75;5009801;28;20026;-57
2021/12/01 08:24:44;;;;;;;6.60;5.63;;;;;;;7.12;100.00;99139.91;5009959;28;20025;-55
2021/12/01 08:27:10;;;;;;;5.72;5.00;;;;;;;7.16;100.00;99136.53;5010053;28;20021;-56
2021/12/01 08:29:35;;;;;;;6.07;5.50;;;;;;;7.20;100.00;99142.63;5009628;28;20084;-58
2021/12/01 08:32:00;;;;;;;5.90;5.40;;;;;;;7.20;100.00;99138.34;5009829;28;20034;-56
2021/12/01 08:34:26;;;;;;;6.28;5.78;;;;;;;7.20;100.00;99140.91;5009966;28;20477;-58
2021/12/01 08:36:51;;;;;;;6.25;5.75;;;;;;;7.20;100.00;99128.03;4990792;28;20162;-58
2021/12/01 08:39:17;;;;;;;6.47;5.88;;;;;;;7.25;100.00;99129.84;5009575;28;20084;-57
2021/12/01 08:41:43;;;;;;;5.55;5.05;;;;;;;7.25;100.00;99125.53;5010172;28;20034;-58
2021/12/01 08:44:08;;;;;;;5.20;4.80;;;;;;;7.27;100.00;99117.81;5009380;28;20025;-57
2021/12/01 08:46:34;;;;;;;6.18;5.47;;;;;;;7.31;100.00;99127.34;5009914;28;20030;-56
2021/12/01 08:48:59;;;;;;;4.55;4.15;;;;;;;7.33;100.00;99112.78;5008371;28;20030;-57
2021/12/01 08:51:26;;;;;;;4.35;4.05;;;;;;;7.38;100.00;99120.59;5005242;28;20026;-58
2021/12/01 08:53:51;;;;;;;4.18;3.78;;;;;;;7.43;100.00;99119.84;5008816;28;20029;-56
2021/12/01 08:56:17;;;;;;;4.20;3.90;;;;;;;7.50;100.00;99109.66;5008742;28;20462;-58
2021/12/01 08:58:42;;;;;;;3.60;3.40;;;;;;;7.52;100.00;99113.97;5007761;28;20096;-56
2021/12/01 09:01:08;;;;;;;3.40;3.10;;;;;;;7.56;100.00;99113.19;5008627;28;20049;-57
2021/12/01 09:03:33;;;;;;;3.78;3.47;;;;;;;7.62;100.00;99117.59;5008419;28;20021;-56
2021/12/01 09:05:59;;;;;;;3.30;3.00;;;;;;;7.65;100.00;99104.72;5007674;28;20497;-55
2021/12/01 09:08:24;;;;;;;3.15;2.95;;;;;;;7.72;100.00;99115.16;5007774;28;20021;-57
2021/12/01 09:10:53;;;;;;;2.60;2.40;;;;;;;7.72;100.00;99120.31;5008003;28;20041;-57
2021/12/01 09:13:22;;;;;;;2.08;1.90;;;;;;;7.74;100.00;99118.59;5007868;28;20490;-57
2021/12/01 09:15:48;;;;;;;1.80;1.70;;;;;;;7.70;100.00;99117.69;5008530;28;20129;-57
2021/12/01 09:18:14;;;;;;;2.00;1.50;;;;;;;7.71;100.00;99113.41;5007628;28;20117;-58
2021/12/01 09:20:39;;;;;;;2.45;2.13;;;;;;;7.68;100.00;99120.25;5010233;28;20080;-57
2021/12/01 09:23:05;;;;;;;1.63;1.52;;;;;;;7.65;100.00;99115.03;5011531;28;20474;-57
2021/12/01 09:25:33;;;;;;;2.65;1.80;;;;;;;7.61;100.00;99113.25;5010665;28;20041;-57
2021/12/01 09:27:59;;;;;;;1.67;1.58;;;;;;;7.65;100.00;99119.31;5011676;28;20100;-57
2021/12/01 09:30:24;;;;;;;1.90;1.65;;;;;;;7.64;100.00;99128.78;5011233;28;20545;-56
2021/12/01 09:32:49;;;;;;;1.55;1.45;;;;;;;7.64;100.00;99115.91;5010800;28;20030;-57
2021/12/01 09:35:15;;;;;;;3.00;1.77;;;;;;;7.63;100.00;99119.31;5009294;28;20060;-58
2021/12/01 09:37:41;;;;;;;2.15;2.03;;;;;;;7.60;100.00;99121.84;5011530;28;20474;-56
2021/12/01 09:40:13;;;;;;;2.45;2.25;;;;;;;7.57;100.00;99127.81;5011038;28;20092;-57
2021/12/01 09:42:42;;;;;;;3.90;2.40;;;;;;;7.54;100.00;99137.19;5011926;28;20521;-57
2021/12/01 09:45:08;;;;;;;2.58;1.92;;;;;;;7.51;100.00;99143.19;5011300;28;20038;-57
2021/12/01 09:47:33;;;;;;;2.75;2.05;;;;;;;7.49;100.00;99143.97;5007404;28;20026;-57
2021/12/01 09:49:59;;;;;;;1.95;1.85;;;;;;;7.49;100.00;99142.28;5010729;28;20569;-58
2021/12/01 09:52:24;;;;;;;3.50;1.90;;;;;;;7.48;100.00;99150.88;5011448;28;20021;-58
2021/12/01 09:54:50;;;;;;;3.78;1.90;;;;;;;7.50;100.00;99150.88;5011748;28;20544;-57
2021/12/01 09:57:15;;;;;;;3.15;2.33;;;;;;;7.47;100.00;99153.38;5010702;28;20072;-57
2021/12/01 09:59:42;;;;;;;4.55;2.25;;;;;;;7.49;100.00;99156.88;5011004;28;20041;-56
2021/12/01 10:02:09;;;;;;;2.90;1.80;;;;;;;7.49;100.00;99151.72;5011375;28;20033;-57
2021/12/01 10:04:34;;;;;;;5.18;2.00;;;;;;;7.49;100.00;99143.97;5011913;28;20026;-58
2021/12/01 10:07:21;;;;;;;3.90;1.92;;;;;;;7.51;100.00;99143.19;5010446;28;20026;-56
2021/12/01 10:09:51;;;;;;;5.82;2.40;;;;;;;7.49;100.00;99139.69;5007564;28;20147;-57
2021/12/01 10:12:18;;;;;;;4.55;1.88;;;;;;;7.44;100.00;99152.53;5010483;28;20097;-58
2021/12/01 10:14:48;;;;;;;5.38;1.80;;;;;;;7.43;100.00;99140.47;5011043;28;20355;-58
2021/12/01 10:17:15;;;;;;;7.05;2.33;;;;;;;7.42;100.00;99146.47;5011456;28;20041;-57
2021/12/01 10:19:41;;;;;;;4.25;1.88;;;;;;;7.41;100.00;99136.97;5010917;28;20450;-57
2021/12/01 10:22:12;;;;;;;4.97;1.90;;;;;;;7.39;100.00;99133.53;5011713;28;20131;-56
2021/12/01 10:24:40;;;;;;;5.05;2.22;;;;;;;7.39;100.00;99142.97;5009973;28;20117;-58
2021/12/01 10:27:13;;;;;;;6.63;2.33;;;;;;;7.37;100.00;99132.63;5010651;28;20065;-58
2021/12/01 10:29:49;;;;;;;5.38;1.58;;;;;;;7.41;100.00;99131.81;5010132;28;20031;-57
2021/12/01 10:32:18;;;;;;;7.80;2.13;;;;;;;7.50;100.00;99141.44;5009320;28;20068;-57
2021/12/01 10:34:53;;;;;;;9.13;1.95;;;;;;;7.59;100.00;99135.56;5010909;28;20116;-57
2021/12/01 10:37:26;;;;;;;6.15;1.15;;;;;;;7.66;100.00;99139.13;5010037;28;20030;-57
2021/12/01 10:40:14;;;;;;;5.97;1.23;;;;;;;7.77;100.00;99131.56;5008089;28;20425;-55
2021/12/01 10:43:00;;;;;;;6.60;1.30;;;;;;;7.86;100.00;99131.69;5010214;28;20017;-57
2021/12/01 10:45:45;;;;;;;7.70;1.98;;;;;;;7.86;100.00;99134.28;5009812;28;20083;-57
2021/12/01 10:48:19;;;;;;;5.65;1.15;;;;;;;7.85;100.00;99129.97;5010711;28;20423;-57
2021/12/01 10:50:45;;;;;;;6.90;0.93;;;;;;;7.88;100.00;99121.44;4990988;28;20026;-57
2021/12/01 10:53:19;;;;;;;6.50;1.30;;;;;;;7.89;100.00;99123.16;5009809;28;20044;-56
2021/12/01 10:55:49;;;;;;;4.78;1.35;;;;;;;7.90;100.00;99120.59;5008829;28;20121;-56
2021/12/01 10:58:15;;;;;;;4.05;1.10;;;;;;;7.94;100.00;99131.81;5010545;28;20026;-57
2021/12/01 11:00:42;;;;;;;6.03;1.35;;;;;;;7.96;100.00;99121.53;5009444;28;20429;-56
2021/12/01 11:03:21;;;;;;;3.47;0.88;;;;;;;8.00;100.00;99126.78;5010117;28;20075;-57
2021/12/01 11:05:52;;;;;;;3.88;1.05;;;;;;;8.00;100.00;99120.75;5009785;28;20227;-57
2021/12/01 11:08:19;;;;;;;8.57;1.30;;;;;;;7.96;100.00;99114.66;5007276;28;20026;-57
2021/12/01 11:10:50;;;;;;;3.25;0.80;;;;;;;7.89;100.00;99126.59;5007733;28;20034;-57
2021/12/01 11:13:18;;;;;;;5.00;0.88;;;;;;;7.82;100.00;99127.34;5008259;28;20041;-58
2021/12/01 11:15:54;;;;;;;2.63;0.90;;;;;;;7.71;100.00;99134.03;5010854;28;20042;-57
2021/12/01 11:18:26;;;;;;;4.20;0.95;;;;;;;7.63;100.00;99132.19;5008898;28;20513;-57
2021/12/01 11:20:57;;;;;;;5.72;0.73;;;;;;;7.57;100.00;99142.41;5009003;28;20432;-58
2021/12/01 11:23:31;;;;;;;1.83;0.70;;;;;;;7.54;100.00;99138.06;5006871;28;20025;-57
2021/12/01 11:26:04;;;;;;;3.25;0.70;;;;;;;7.55;100.00;99144.09;5009564;28;20064;-56
2021/12/01 11:28:32;;;;;;;4.03;1.05;;;;;;;7.49;100.00;99149.13;5009768;28;20025;-58
2021/12/01 11:31:00;;;;;;;4.65;0.88;;;;;;;7.41;100.00;99147.28;5006835;28;20112;-57
2021/12/01 11:33:27;;;;;;;6.68;0.93;;;;;;;7.37;100.00;99142.94;5004695;28;20032;-57
2021/12/01 11:35:56;;;;;;;2.78;0.63;;;;;;;7.35;100.00;99141.16;5008738;28;20058;-57
2021/12/01 11:38:22;;;;;;;5.35;0.98;;;;;;;7.31;100.00;99147.97;5008500;28;20025;-56